Thursday, January 17, 2019, 6:56 AM EST
Back to Local

K12N, Aeroflex-andover Airport

Location: Newton, NJ, United States Lat: 41.017
Local Time: 6:56 AM EST (11:56 GMT) Lon: -74.733
Time Zone: US/Eastern Elev: 583 ft

Show me the last for .
Show Decoded

2019-01-17 05:54 METAR K12N 171054Z AUTO 35006KT M07/M14 A3033 RMK AO1 SLP283 T10671139 =
2019-01-17 04:54 METAR K12N 170954Z AUTO 35005KT M07/M14 A3031 RMK AO1 SLP278 T10671139 =
2019-01-17 03:54 METAR K12N 170854Z AUTO VRB04KT M06/M14 A3031 RMK AO1 SLP276 T10611139 50014 =
2019-01-17 02:54 METAR K12N 170754Z AUTO 33007KT M06/M14 A3031 RMK AO1 SLP276 T10561144 =
2019-01-17 01:54 METAR K12N 170654Z AUTO VRB05KT M05/M14 A3029 RMK AO1 SLP270 T10501139 =
2019-01-17 00:54 METAR K12N 170554Z AUTO VRB06KT M03/M12 A3027 RMK AO1 SLP261 T10331117 10022
                 21033 53028 =
2019-01-16 23:54 METAR K12N 170454Z AUTO 35008KT M02/M10 A3024 RMK AO1 SLP253 T10221100 400331083
                 =
2019-01-16 22:54 METAR K12N 170354Z AUTO 34008KT M01/M11 A3020 RMK AO1 SLP240 T10111106 =
2019-01-16 21:54 METAR K12N 170254Z AUTO 35008KT 00/M09 A3018 RMK AO1 SLP232 T00001089 53027 =
2019-01-16 20:54 METAR K12N 170154Z AUTO 33008G17KT 260V360 02/M08 A3014 RMK AO1 SLP219 T00171083
                 =
2019-01-16 19:54 METAR K12N 170054Z AUTO 29003KT 01/M07 A3011 RMK AO1 SLP209 T00111067 =
2019-01-16 18:54 METAR K12N 162354Z AUTO 00000KT 02/M07 A3010 RMK AO1 SLP204 T00171067 10033
                 20017 53020 =
2019-01-16 17:54 METAR K12N 162254Z AUTO VRB03KT 02/M06 A3008 RMK AO1 SLP196 T00171061 =
2019-01-16 16:54 METAR K12N 162154Z AUTO VRB05KT 02/M07 A3005 RMK AO1 SLP188 T00221067 =
2019-01-16 15:54 METAR K12N 162054Z AUTO VRB05KT 02/M07 A3004 RMK AO1 SLP186 T00221067 53009 $ =
2019-01-16 14:54 METAR K12N 161954Z AUTO VRB05KT 03/M07 A3003 RMK AO1 SLP181 T00281067 $ =
2019-01-16 13:54 METAR K12N 161854Z AUTO VRB06KT 02/M07 A3002 RMK AO1 SLP179 T00221067 $ =
2019-01-16 12:54 METAR K12N 161754Z AUTO VRB06G15KT 02/M06 A3001 RMK AO1 SLP176 T00171056 10017
                 21033 58015 $ =
2019-01-16 11:54 METAR K12N 161654Z AUTO 22004KT 01/M06 A3004 RMK AO1 SLP185 T00061056 $ =
2019-01-16 10:54 METAR K12N 161554Z AUTO VRB03KT 00/M06 A3006 RMK AO1 SLP192 T00001061 $ =
2019-01-16 09:54 METAR K12N 161454Z AUTO 28004KT M01/M06 A3006 RMK AO1 SLP192 T10061061 53015 $ =
2019-01-16 08:54 METAR K12N 161354Z AUTO 00000KT M02/M06 A3003 RMK AO1 SLP184 T10171056 $ =
2019-01-16 07:54 METAR K12N 161254Z AUTO 00000KT M03/M06 A3003 RMK AO1 SLP182 T10281056 $ =

Support USWX by starting your Amazon purchase here.